Warwick Aws, Queensland

8:47 AM AEST on December 19, 2014 (GMT +1000)
Warwick-rosebud | Change Station
CLOSE
Current Station
Personal Weather Station
Location: Warwick, QUEENSLAND
Elevation: 1578 ft
Nearby Weather Stations

Elev 1578 ft 28.23 °S, 152.02 °E | Updated 2 seconds ago

Clear
Clear
75.0 °F
Feels Like 77 °F
N
3.6
Wind Variable Wind from SSE
Gusts 4.9 mph

Today
High -- | Low -- °F
--% Chance of Precip.
Yesterday
High -- | Low -- °F
Precip. -- in
4:50 AM 6:46 PM
Waning Crescent, 12% visible
Pressure 29.86 in
Visibility 6.2 miles
Clouds
Heat Index 77 °F
Dew Point 62 °F
Humidity 63%
Rainfall 0.05 in
Snow Depth Not available.
UV 6.0 out of 12
Pollen Not available.
Air Quality Not available.
Flu Activity Not available.
METAR YAMB 182230Z AUTO 31010KT 9999 // NCD 25/19 Q1011

More Conditions Fewer Conditions

Pressure 29.86 in
Visibility 6.2 miles
Clouds
Heat Index 77 °F
Dew Point 62 °F
Humidity 63%
Rainfall 0.05 in
Snow Depth Not available.
UV 6.0 out of 12
Pollen Not available.
Air Quality Not available.
Flu Activity Not available.
METAR YAMB 182230Z AUTO 31010KT 9999 // NCD 25/19 Q1011

More Conditions Fewer Conditions

10-Day Weather Forecast

Almanac

Astronomy

Dec. 19, 2014 Rise Set
Actual Time
Civil Twilight
Nautical Twilight
Astronomical Twilight
Moon
Length of Visible Light
Length of Day
Tomorrow will be .
, % of the Moon is Illuminated

Today's Extremes

Country Highs Country Lows

Community

WunderPhotos

Upload Photos

1,779,010 photos uploaded!

WunderBlogs® & News

Nearby

Air Quality

  Air Quality AQ Index Pollutant
Not available.

Snow Depth

Station Depth Elevation

Earthquake Activity

City Distance Mag. Time & Date
Minimum magnitude displayed is 2.5.

Coastal Water Temperatures

Place Temperature

Nearby Weather Stations